createdAt,value
2023-02-14T00:02:25.152Z,5.70
2023-02-14T00:05:03.160Z,6.30
2023-02-14T00:07:33.536Z,7.90
2023-02-14T00:10:10.909Z,7.10
2023-02-14T00:12:41.474Z,6.10
2023-02-14T00:15:26.158Z,6.40
2023-02-14T00:18:06.832Z,7.50
2023-02-14T00:20:44.647Z,7.90
2023-02-14T00:23:21.864Z,7.50
2023-02-14T00:25:59.835Z,5.90
2023-02-14T00:28:30.678Z,8.30
2023-02-14T00:31:07.503Z,6.70
2023-02-14T00:33:44.985Z,9.60
2023-02-14T00:36:24.019Z,8.00
2023-02-14T00:38:54.241Z,7.50
2023-02-14T00:41:31.026Z,7.90
2023-02-14T00:44:10.829Z,7.90
2023-02-14T00:46:47.513Z,8.00
2023-02-14T00:49:24.933Z,7.40
2023-02-14T00:52:02.468Z,9.50
2023-02-14T00:54:39.170Z,14.50
2023-02-14T00:57:17.688Z,4.60
2023-02-14T00:59:55.088Z,7.90
2023-02-14T01:02:32.747Z,8.50
2023-02-14T01:05:10.973Z,6.10
2023-02-14T01:07:41.690Z,8.00
2023-02-14T01:10:13.381Z,9.00
2023-02-14T01:12:44.316Z,7.50
2023-02-14T01:15:22.749Z,7.20
2023-02-14T01:18:00.525Z,7.60
2023-02-14T01:20:38.188Z,10.20
2023-02-14T01:23:16.519Z,9.60
2023-02-14T01:25:48.604Z,6.30
2023-02-14T01:28:19.578Z,5.20
2023-02-14T01:30:49.629Z,13.60
2023-02-14T01:33:28.090Z,7.90
2023-02-14T01:36:05.416Z,9.60
2023-02-14T01:38:42.888Z,15.60
2023-02-14T01:41:22.188Z,9.70
2023-02-14T01:44:09.452Z,14.30
2023-02-14T01:46:42.878Z,11.50
2023-02-14T01:49:38.540Z,14.50
2023-02-14T01:52:19.643Z,17.00
2023-02-14T01:55:08.261Z,13.00
2023-02-14T01:58:10.990Z,7.40
2023-02-14T02:01:00.901Z,9.20
2023-02-14T02:04:03.730Z,8.80
2023-02-14T02:06:48.093Z,11.00
2023-02-14T02:09:36.347Z,11.40
2023-02-14T02:12:13.509Z,7.70
2023-02-14T02:14:51.523Z,8.30
2023-02-14T02:17:58.075Z,8.50
2023-02-14T02:20:43.276Z,9.20
2023-02-14T02:23:30.919Z,8.20
2023-02-14T02:26:38.468Z,8.60
2023-02-14T02:30:27.189Z,10.10
2023-02-14T02:33:21.541Z,10.00
2023-02-14T02:36:12.068Z,14.60
2023-02-14T02:39:14.545Z,9.40
2023-02-14T02:42:04.134Z,6.50
2023-02-14T02:45:01.032Z,10.00
2023-02-14T02:48:08.111Z,7.00
2023-02-14T02:51:16.321Z,13.80
2023-02-14T02:54:04.204Z,10.70
2023-02-14T02:56:53.791Z,8.90
2023-02-14T02:59:38.397Z,10.80
2023-02-14T03:02:17.218Z,9.40
2023-02-14T03:04:57.356Z,9.80
2023-02-14T03:07:40.241Z,9.40
2023-02-14T03:10:34.314Z,13.30
2023-02-14T03:13:49.625Z,10.40
2023-02-14T03:16:33.411Z,9.40
2023-02-14T03:20:01.899Z,11.90
2023-02-14T03:22:54.355Z,8.90
2023-02-14T03:25:48.790Z,11.50
2023-02-14T03:28:50.344Z,9.20
2023-02-14T03:31:43.170Z,10.10
2023-02-14T03:34:33.002Z,11.10
2023-02-14T03:37:30.594Z,6.00
2023-02-14T03:40:18.260Z,10.40
2023-02-14T03:43:20.668Z,8.90
2023-02-14T03:46:12.315Z,5.80
2023-02-14T03:48:53.354Z,9.10
2023-02-14T03:51:35.871Z,7.10
2023-02-14T03:54:11.652Z,11.20
2023-02-14T03:57:20.584Z,9.50
2023-02-14T03:59:59.405Z,11.90
2023-02-14T04:03:03.002Z,9.70
2023-02-14T04:05:35.060Z,8.30
2023-02-14T04:08:13.201Z,12.30
2023-02-14T04:10:51.181Z,12.00
2023-02-14T04:13:28.638Z,12.10
2023-02-14T04:16:07.025Z,13.90
2023-02-14T04:19:04.047Z,8.10
2023-02-14T04:21:34.843Z,11.00
2023-02-14T04:24:13.557Z,10.70
2023-02-14T04:27:12.753Z,9.30
2023-02-14T04:29:56.214Z,12.30
2023-02-14T04:32:33.057Z,12.30
2023-02-14T04:35:12.450Z,12.10
2023-02-14T04:37:46.826Z,12.90
2023-02-14T04:40:18.268Z,8.80
2023-02-14T04:42:55.383Z,10.90
2023-02-14T04:45:35.156Z,6.80
2023-02-14T04:48:05.445Z,9.90
2023-02-14T04:50:43.858Z,13.20
2023-02-14T04:53:20.956Z,10.20
2023-02-14T04:55:52.192Z,9.90
2023-02-14T04:58:23.662Z,10.80
2023-02-14T05:00:56.022Z,5.80
2023-02-14T05:03:34.224Z,11.90
2023-02-14T05:06:13.144Z,11.30
2023-02-14T05:08:50.311Z,9.80
2023-02-14T05:11:28.364Z,9.10
2023-02-14T05:14:06.188Z,9.60
2023-02-14T05:16:44.183Z,13.80
2023-02-14T05:19:21.847Z,13.90
2023-02-14T05:21:59.645Z,8.30
2023-02-14T05:24:37.099Z,9.70
2023-02-14T05:27:14.894Z,6.00
2023-02-14T05:29:52.454Z,10.60
2023-02-14T05:32:22.819Z,17.10
2023-02-14T05:34:57.034Z,10.00
2023-02-14T05:37:34.555Z,7.20
2023-02-14T05:40:14.519Z,13.50
2023-02-14T05:42:51.506Z,10.30
2023-02-14T05:45:28.742Z,12.50
2023-02-14T05:48:06.404Z,14.30
2023-02-14T05:50:45.809Z,5.50
2023-02-14T05:53:23.134Z,10.70
2023-02-14T05:55:59.866Z,12.90
2023-02-14T05:58:36.911Z,8.10
2023-02-14T06:01:14.772Z,10.20
2023-02-14T06:03:52.101Z,12.20
2023-02-14T06:06:22.356Z,12.80
2023-02-14T06:08:58.393Z,15.80
2023-02-14T06:11:35.055Z,12.60
2023-02-14T06:14:11.880Z,9.70
2023-02-14T06:16:48.976Z,15.30
2023-02-14T06:19:27.042Z,9.10
2023-02-14T06:22:05.805Z,10.40
2023-02-14T06:24:43.043Z,12.30
2023-02-14T06:27:21.297Z,16.40
2023-02-14T06:29:58.719Z,12.80
2023-02-14T06:32:35.420Z,15.40
2023-02-14T06:35:09.329Z,12.30
2023-02-14T06:37:41.790Z,11.80
2023-02-14T06:40:20.214Z,11.00
2023-02-14T06:42:57.407Z,11.50
2023-02-14T06:45:34.727Z,12.60
2023-02-14T06:48:12.671Z,8.20
2023-02-14T06:50:50.322Z,16.00
2023-02-14T06:53:27.499Z,9.40
2023-02-14T06:56:04.605Z,11.70
2023-02-14T06:58:41.620Z,11.10
2023-02-14T07:01:18.560Z,13.90
2023-02-14T07:03:55.005Z,13.80
2023-02-14T07:06:32.469Z,11.70
2023-02-14T07:09:02.476Z,13.00
2023-02-14T07:11:40.083Z,9.20
2023-02-14T07:14:10.586Z,14.60
2023-02-14T07:16:48.180Z,9.40
2023-02-14T07:19:25.326Z,10.70
2023-02-14T07:22:02.209Z,9.90
2023-02-14T07:24:40.050Z,7.80
2023-02-14T07:27:17.892Z,12.50
2023-02-14T07:29:55.283Z,12.70
2023-02-14T07:32:27.489Z,13.50
2023-02-14T07:35:01.703Z,10.80
2023-02-14T07:37:41.145Z,10.40
2023-02-14T07:40:18.686Z,14.30
2023-02-14T07:43:01.589Z,14.80
2023-02-14T07:45:38.890Z,9.70
2023-02-14T07:48:15.880Z,10.80
2023-02-14T07:50:53.496Z,10.50
2023-02-14T07:53:30.711Z,13.00
2023-02-14T07:56:08.613Z,8.20
2023-02-14T07:58:46.036Z,11.40
2023-02-14T08:01:23.196Z,13.70
2023-02-14T08:03:59.903Z,13.80
2023-02-14T08:06:36.281Z,13.50
2023-02-14T08:09:07.745Z,9.80
2023-02-14T08:12:02.326Z,11.80
2023-02-14T08:14:39.706Z,16.70
2023-02-14T08:17:14.402Z,9.30
2023-02-14T08:19:45.850Z,10.60
2023-02-14T08:22:22.348Z,11.20
2023-02-14T08:24:59.077Z,10.50
2023-02-14T08:27:35.842Z,12.80
2023-02-14T08:30:19.877Z,14.00
2023-02-14T08:32:57.647Z,9.00
2023-02-14T08:35:34.978Z,11.70
2023-02-14T08:38:12.653Z,13.80
2023-02-14T08:40:50.236Z,6.10
2023-02-14T08:43:20.853Z,12.00
2023-02-14T08:46:00.681Z,13.10
2023-02-14T08:48:39.543Z,16.00
2023-02-14T08:51:15.138Z,9.10
2023-02-14T08:53:46.933Z,14.50
2023-02-14T08:56:23.287Z,14.20
2023-02-14T08:59:01.207Z,11.10
2023-02-14T09:01:39.080Z,13.20
2023-02-14T09:04:12.217Z,13.50
2023-02-14T09:06:51.815Z,12.20
2023-02-14T09:09:22.953Z,12.80
2023-02-14T09:12:00.204Z,12.70
2023-02-14T09:14:44.893Z,7.50
2023-02-14T09:17:21.652Z,11.10
2023-02-14T09:20:00.048Z,6.60
2023-02-14T09:22:38.784Z,9.90
2023-02-14T09:25:09.403Z,12.70
2023-02-14T09:27:44.576Z,10.20
2023-02-14T09:30:21.135Z,14.30
2023-02-14T09:32:58.558Z,13.00
2023-02-14T09:35:54.863Z,16.70
2023-02-14T09:38:27.229Z,10.70
2023-02-14T09:41:08.170Z,14.30
2023-02-14T09:44:09.958Z,13.70
2023-02-14T09:46:56.521Z,22.30
2023-02-14T09:49:42.624Z,16.50
2023-02-14T09:52:20.925Z,15.80
2023-02-14T09:54:59.225Z,13.00
2023-02-14T09:58:27.969Z,13.20
2023-02-14T10:01:14.848Z,9.10
2023-02-14T10:10:18.346Z,10.30
2023-02-14T10:13:30.740Z,12.70
2023-02-14T10:16:43.595Z,14.50
2023-02-14T10:19:30.697Z,17.10
2023-02-14T10:22:21.179Z,15.50
2023-02-14T10:25:35.130Z,14.50
2023-02-14T10:28:17.005Z,14.50
2023-02-14T10:34:30.183Z,14.00
2023-02-14T10:37:49.000Z,16.20
2023-02-14T10:41:06.877Z,9.50
2023-02-14T10:44:02.517Z,15.40
2023-02-14T10:47:06.380Z,13.60
2023-02-14T10:49:36.985Z,11.50
2023-02-14T10:52:28.245Z,9.50
2023-02-14T10:55:30.077Z,17.70
2023-02-14T10:58:14.426Z,15.80
2023-02-14T11:01:14.817Z,13.50
2023-02-14T11:04:12.181Z,15.00
2023-02-14T11:06:45.290Z,14.80
2023-02-14T11:09:24.612Z,16.30
2023-02-14T11:12:06.339Z,9.70
2023-02-14T11:14:45.112Z,11.00
2023-02-14T11:17:36.728Z,9.40
2023-02-14T11:20:28.610Z,14.80
2023-02-14T11:23:19.617Z,14.00
2023-02-14T11:25:56.751Z,13.20
2023-02-14T11:28:31.171Z,15.10
2023-02-14T11:31:05.863Z,9.30
2023-02-14T11:33:51.389Z,10.90
2023-02-14T11:36:28.922Z,16.10
2023-02-14T11:39:38.898Z,14.70
2023-02-14T11:42:36.957Z,14.20
2023-02-14T11:45:38.212Z,17.40
2023-02-14T11:48:40.236Z,7.60
2023-02-14T11:51:17.202Z,18.90
2023-02-14T11:54:02.949Z,17.90
2023-02-14T11:57:03.759Z,13.30
2023-02-14T11:59:55.592Z,15.10
2023-02-14T12:02:39.080Z,16.20
2023-02-14T12:05:50.559Z,17.10
2023-02-14T12:08:32.630Z,17.00
2023-02-14T12:11:22.429Z,13.50
2023-02-14T12:13:59.050Z,18.70
2023-02-14T12:17:07.376Z,17.50
2023-02-14T12:20:14.177Z,15.60
2023-02-14T12:23:11.835Z,15.50
2023-02-14T12:26:22.494Z,16.70
2023-02-14T12:29:32.883Z,14.20
2023-02-14T12:32:30.644Z,11.10
2023-02-14T12:35:22.094Z,13.60
2023-02-14T12:38:19.031Z,21.30
2023-02-14T12:41:27.000Z,13.80
2023-02-14T12:44:32.237Z,11.60
2023-02-14T12:47:39.035Z,13.60
2023-02-14T12:50:43.366Z,13.10
2023-02-14T12:54:00.241Z,12.90
2023-02-14T12:57:05.798Z,15.80
2023-02-14T13:00:15.541Z,16.50
2023-02-14T13:03:32.792Z,20.40
2023-02-14T13:06:34.364Z,18.00
2023-02-14T13:10:03.257Z,17.50
2023-02-14T13:13:01.829Z,14.30
2023-02-14T13:16:01.215Z,16.60
2023-02-14T13:18:55.682Z,15.70
2023-02-14T13:21:39.533Z,13.80
2023-02-14T13:24:43.976Z,18.10
2023-02-14T13:27:47.513Z,16.30
2023-02-14T13:30:34.379Z,14.00
2023-02-14T13:33:34.727Z,13.30
2023-02-14T13:36:12.827Z,16.60
2023-02-14T13:41:28.177Z,14.10
2023-02-14T13:44:06.106Z,18.20
2023-02-14T13:46:36.977Z,11.00
2023-02-14T13:49:41.061Z,14.00
2023-02-14T13:52:35.652Z,18.10
2023-02-14T13:55:28.437Z,14.90
2023-02-14T13:58:33.505Z,14.40
2023-02-14T14:01:52.007Z,16.20
2023-02-14T14:04:32.877Z,14.60
2023-02-14T14:07:17.748Z,16.40
2023-02-14T14:09:54.372Z,15.00
2023-02-14T14:12:33.516Z,13.20
2023-02-14T14:15:20.336Z,19.30
2023-02-14T14:18:18.626Z,11.00
2023-02-14T14:20:53.962Z,20.10
2023-02-14T14:23:41.403Z,15.70
2023-02-14T14:26:38.871Z,18.30
2023-02-14T14:29:29.710Z,13.70
2023-02-14T14:32:32.866Z,15.70
2023-02-14T14:35:21.644Z,16.70
2023-02-14T14:40:39.100Z,16.60
2023-02-14T14:43:27.540Z,17.40
2023-02-14T14:46:06.727Z,15.80
2023-02-14T14:48:52.107Z,15.00
2023-02-14T14:51:37.130Z,17.80
2023-02-14T14:54:25.817Z,17.50
2023-02-14T14:57:04.372Z,17.20
2023-02-14T14:59:42.150Z,17.30
2023-02-14T15:02:32.660Z,14.30
2023-02-14T15:05:44.664Z,12.00
2023-02-14T15:08:34.870Z,14.00
2023-02-14T15:11:45.709Z,12.20
2023-02-14T15:14:29.249Z,11.00
2023-02-14T15:17:21.533Z,17.00
2023-02-14T15:20:22.101Z,14.10
2023-02-14T15:23:00.192Z,15.70
2023-02-14T15:25:39.657Z,15.80
2023-02-14T15:28:32.803Z,14.00
2023-02-14T15:31:09.292Z,14.60
2023-02-14T15:33:48.837Z,11.60
2023-02-14T15:36:28.312Z,15.90
2023-02-14T15:39:07.871Z,14.40
2023-02-14T15:41:49.028Z,15.20
2023-02-14T15:44:28.134Z,18.60
2023-02-14T15:47:08.274Z,15.20
2023-02-14T15:49:46.946Z,16.60
2023-02-14T15:52:20.395Z,16.40
2023-02-14T15:54:55.524Z,13.80
2023-02-14T15:57:31.103Z,24.40
2023-02-14T16:00:22.011Z,18.80
2023-02-14T16:03:01.007Z,21.40
2023-02-14T16:05:40.161Z,15.70
2023-02-14T16:08:41.458Z,18.40
2023-02-14T16:11:40.272Z,14.50
2023-02-14T16:14:49.789Z,13.80
2023-02-14T16:17:39.107Z,12.60
2023-02-14T16:20:51.688Z,17.70
2023-02-14T16:23:29.748Z,20.70
2023-02-14T16:26:02.081Z,25.80
2023-02-14T16:28:38.141Z,13.90
2023-02-14T16:33:50.748Z,21.80
2023-02-14T16:36:35.809Z,18.00
2023-02-14T16:39:17.304Z,22.40
2023-02-14T16:44:33.140Z,20.20
2023-02-14T16:47:12.784Z,20.10
2023-02-14T16:49:53.296Z,19.50
2023-02-14T16:52:32.221Z,20.80
2023-02-14T16:55:17.609Z,19.20
2023-02-14T16:57:55.316Z,17.60
2023-02-14T17:00:34.708Z,18.80
2023-02-14T17:03:08.361Z,18.50
2023-02-14T17:05:48.265Z,17.90
2023-02-14T17:08:27.767Z,19.50
2023-02-14T17:11:06.378Z,20.70
2023-02-14T17:13:45.484Z,18.60
2023-02-14T17:16:25.518Z,24.80
2023-02-14T17:19:06.754Z,16.70
2023-02-14T17:21:45.982Z,16.20
2023-02-14T17:24:24.295Z,22.60
2023-02-14T17:26:55.519Z,20.60
2023-02-14T17:29:33.463Z,14.10
2023-02-14T17:32:04.983Z,18.70
2023-02-14T17:34:41.580Z,21.20
2023-02-14T17:37:19.650Z,17.90
2023-02-14T17:39:55.584Z,17.30
2023-02-14T17:42:35.236Z,17.40
2023-02-14T17:45:13.313Z,18.10
2023-02-14T17:47:50.424Z,19.90
2023-02-14T17:50:28.593Z,23.20
2023-02-14T17:53:07.490Z,19.10
2023-02-14T17:55:44.706Z,22.90
2023-02-14T17:58:14.964Z,19.00
2023-02-14T18:00:53.022Z,20.50
2023-02-14T18:03:23.142Z,11.30
2023-02-14T18:05:53.853Z,21.20
2023-02-14T18:08:37.499Z,18.10
2023-02-14T18:11:11.537Z,18.70
2023-02-14T18:13:51.025Z,16.20
2023-02-14T18:16:25.477Z,19.90
2023-02-14T18:19:09.492Z,22.10
2023-02-14T18:21:48.465Z,15.00
2023-02-14T18:24:18.982Z,22.10
2023-02-14T18:26:54.891Z,22.00
2023-02-14T18:29:34.424Z,22.60
2023-02-14T18:32:06.259Z,18.20
2023-02-14T18:34:38.383Z,21.70
2023-02-14T18:37:13.049Z,20.30
2023-02-14T18:39:51.610Z,18.10
2023-02-14T18:42:29.332Z,13.40
2023-02-14T18:45:07.536Z,18.30
2023-02-14T18:47:45.907Z,22.90
2023-02-14T18:50:24.366Z,20.10
2023-02-14T18:52:54.898Z,21.20
2023-02-14T18:55:27.938Z,17.10
2023-02-14T18:58:02.464Z,20.00
2023-02-14T19:00:41.144Z,21.40
2023-02-14T19:03:18.826Z,23.70
2023-02-14T19:05:55.266Z,15.80
2023-02-14T19:08:37.138Z,11.80
2023-02-14T19:11:23.804Z,18.20
2023-02-14T19:13:57.809Z,18.60
2023-02-14T19:16:39.860Z,24.60
2023-02-14T19:19:18.470Z,21.40
2023-02-14T19:21:56.611Z,24.30
2023-02-14T19:24:35.074Z,19.70
2023-02-14T19:27:06.897Z,17.00
2023-02-14T19:29:46.471Z,21.90
2023-02-14T19:32:17.526Z,19.50
2023-02-14T19:34:51.398Z,16.50
2023-02-14T19:37:24.981Z,17.30
2023-02-14T19:39:57.553Z,21.40
2023-02-14T19:42:37.175Z,18.30
2023-02-14T19:45:15.460Z,21.70
2023-02-14T19:47:53.127Z,18.70
2023-02-14T19:50:31.734Z,22.00
2023-02-14T19:53:01.948Z,24.00
2023-02-14T19:55:33.731Z,22.00
2023-02-14T19:58:04.127Z,25.50
2023-02-14T20:00:42.195Z,22.90
2023-02-14T20:03:20.805Z,25.60
2023-02-14T20:05:55.208Z,19.50
2023-02-14T20:08:35.014Z,24.50
2023-02-14T20:11:05.193Z,17.40
2023-02-14T20:13:44.247Z,20.80
2023-02-14T20:16:14.594Z,23.80
2023-02-14T20:18:45.089Z,24.00
2023-02-14T20:21:28.608Z,18.10
2023-02-14T20:24:04.719Z,21.90
2023-02-14T20:26:43.080Z,19.30
2023-02-14T20:29:21.532Z,24.00
2023-02-14T20:32:04.299Z,23.70
2023-02-14T20:34:43.208Z,19.10
2023-02-14T20:37:13.500Z,23.90
2023-02-14T20:39:51.896Z,20.60
2023-02-14T20:42:24.027Z,21.90
2023-02-14T20:44:57.683Z,18.10
2023-02-14T20:47:29.001Z,24.50
2023-02-14T20:49:59.187Z,19.20
2023-02-14T20:52:37.816Z,15.90
2023-02-14T20:55:15.737Z,23.00
2023-02-14T20:57:53.215Z,21.00
2023-02-14T21:00:26.606Z,19.90
2023-02-14T21:02:58.093Z,15.90
2023-02-14T21:05:29.284Z,23.40
2023-02-14T21:08:01.396Z,27.90
2023-02-14T21:10:35.591Z,25.50
2023-02-14T21:13:13.758Z,23.20
2023-02-14T21:15:51.544Z,17.90
2023-02-14T21:18:22.543Z,23.10
2023-02-14T21:21:09.124Z,21.10
2023-02-14T21:23:49.654Z,21.50
2023-02-14T21:26:26.080Z,26.80
2023-02-14T21:28:57.517Z,27.70
2023-02-14T21:31:28.890Z,22.20
2023-02-14T21:34:02.727Z,21.50
2023-02-14T21:36:38.562Z,18.20
2023-02-14T21:39:16.638Z,20.70
2023-02-14T21:41:54.702Z,26.80
2023-02-14T21:44:51.339Z,24.10
2023-02-14T21:47:27.889Z,20.60
2023-02-14T21:52:47.927Z,24.40
2023-02-14T21:55:26.205Z,24.30
2023-02-14T21:57:57.869Z,25.70
2023-02-14T22:00:28.216Z,25.60
2023-02-14T22:02:58.598Z,22.20
2023-02-14T22:05:29.615Z,22.00
2023-02-14T22:08:00.212Z,23.40
2023-02-14T22:10:40.952Z,24.80
2023-02-14T22:13:18.463Z,26.60
2023-02-14T22:15:56.542Z,28.50
2023-02-14T22:18:34.447Z,25.70
2023-02-14T22:21:19.464Z,26.00
2023-02-14T22:23:59.036Z,25.20
2023-02-14T22:26:41.635Z,28.10
2023-02-14T22:29:18.700Z,24.50
2023-02-14T22:31:56.978Z,27.00
2023-02-14T22:34:36.371Z,27.20
2023-02-14T22:37:14.115Z,30.20
2023-02-14T22:39:51.864Z,28.40
2023-02-14T22:42:29.534Z,22.10
2023-02-14T22:45:01.548Z,22.60
2023-02-14T22:47:32.970Z,29.40
2023-02-14T22:50:03.047Z,27.00
2023-02-14T22:52:41.127Z,22.80
2023-02-14T22:55:19.533Z,31.10
2023-02-14T22:57:57.473Z,23.40
2023-02-14T23:00:36.046Z,27.50
2023-02-14T23:03:13.943Z,25.00
2023-02-14T23:05:57.459Z,28.40
2023-02-14T23:08:34.868Z,21.10
2023-02-14T23:11:22.202Z,28.10
2023-02-14T23:14:16.955Z,9.70
2023-02-14T23:17:09.900Z,29.30
2023-02-14T23:20:06.447Z,26.70
2023-02-14T23:22:44.915Z,31.10
2023-02-14T23:25:22.016Z,28.50
2023-02-14T23:28:00.050Z,30.10
2023-02-14T23:30:53.591Z,27.80
2023-02-14T23:33:24.024Z,29.10
2023-02-14T23:36:03.262Z,31.70
2023-02-14T23:38:41.851Z,26.10
2023-02-14T23:41:37.512Z,28.40
2023-02-14T23:44:09.220Z,28.60
2023-02-14T23:46:47.741Z,28.00
2023-02-14T23:49:25.708Z,30.50
2023-02-14T23:52:02.040Z,33.00
2023-02-14T23:54:39.731Z,29.60
2023-02-14T23:57:17.558Z,30.10
2023-02-14T23:59:55.767Z,27.90
